Time;durP1;ratioP1;P1;durP2;ratioP2;P2;SDS_P1;SDS_P2;PMS_P1;PMS_P2;Temp;Humidity;BMP_temperature;BMP_pressure;BME280_temperature;BME280_humidity;BME280_pressure;Samples;Min_cycle;Max_cycle;Signal;HPM_P1;HPM_P2
2021/07/08 00:01:56;;;;;;;2.72;1.10;;;;;;;15.65;79.07;95919.22;4957967;28;20227;-77
2021/07/08 00:04:21;;;;;;;3.45;0.93;;;;;;;15.65;79.30;95921.03;4981316;28;20203;-78
2021/07/08 00:06:47;;;;;;;3.35;0.88;;;;;;;15.65;79.44;95918.41;4990008;28;20180;-77
2021/07/08 00:09:12;;;;;;;2.88;0.90;;;;;;;15.65;78.92;95907.94;4993694;28;20223;-78
2021/07/08 00:11:38;;;;;;;1.65;0.90;;;;;;;15.68;79.05;95918.88;4993645;28;20291;-77
2021/07/08 00:14:04;;;;;;;1.15;1.05;;;;;;;15.71;79.09;95918.53;4981053;28;20276;-78
2021/07/08 00:16:29;;;;;;;1.08;0.93;;;;;;;15.73;78.74;95931.47;4962790;28;20269;-76
2021/07/08 00:18:55;;;;;;;1.08;0.93;;;;;;;15.70;79.16;95937.84;4955046;29;20229;-78
2021/07/08 00:21:21;;;;;;;2.08;0.93;;;;;;;15.64;79.03;95940.34;4938919;29;20653;-78
2021/07/08 00:23:47;;;;;;;0.70;0.70;;;;;;;15.62;79.68;95944.91;4954959;28;20178;-77
2021/07/08 00:26:13;;;;;;;0.80;0.70;;;;;;;15.66;79.17;95939.19;4981681;28;20663;-78
2021/07/08 00:28:38;;;;;;;2.30;1.00;;;;;;;15.63;79.25;95939.50;4974617;28;20259;-77
2021/07/08 00:31:04;;;;;;;0.90;0.75;;;;;;;15.60;79.53;95942.44;4973985;28;20324;-77
2021/07/08 00:33:29;;;;;;;1.38;1.08;;;;;;;15.65;79.24;95942.78;4973844;28;20236;-78
2021/07/08 00:35:54;;;;;;;1.85;0.82;;;;;;;15.59;79.38;95931.16;4963943;28;20207;-77
2021/07/08 00:38:20;;;;;;;0.90;0.77;;;;;;;15.65;79.32;95928.88;4964710;28;20184;-78
2021/07/08 00:40:45;;;;;;;1.00;0.90;;;;;;;15.60;79.41;95908.41;4985336;28;20254;-78
2021/07/08 00:43:10;;;;;;;0.80;0.80;;;;;;;15.63;79.30;95915.13;4993091;28;20575;-78
2021/07/08 00:45:36;;;;;;;2.22;0.90;;;;;;;15.65;79.10;95921.03;4985957;28;20850;-78
2021/07/08 00:48:01;;;;;;;1.15;0.80;;;;;;;15.59;79.22;95907.59;4965035;28;20228;-77
2021/07/08 00:50:29;;;;;;;1.10;0.80;;;;;;;15.61;79.40;95901.41;4992988;28;20176;-78
2021/07/08 00:52:55;;;;;;;2.10;0.90;;;;;;;15.66;79.07;95899.09;4992780;28;20203;-77
2021/07/08 00:55:20;;;;;;;0.80;0.80;;;;;;;15.64;79.11;95895.84;4993103;28;20180;-78
2021/07/08 00:57:52;;;;;;;1.15;1.05;;;;;;;15.65;79.41;95884.38;4982857;28;20243;-77
2021/07/08 01:00:31;;;;;;;1.05;1.00;;;;;;;15.61;79.58;95875.22;4947082;29;20209;-79
2021/07/08 01:02:57;;;;;;;1.10;1.00;;;;;;;15.63;79.33;95870.63;4937874;29;20299;-78
2021/07/08 01:05:33;;;;;;;2.08;0.82;;;;;;;15.69;79.41;95862.09;4954072;29;20217;-78
2021/07/08 01:07:59;;;;;;;1.15;0.70;;;;;;;15.61;79.47;95864.75;4974827;28;20286;-79
2021/07/08 01:10:25;;;;;;;1.00;1.00;;;;;;;15.57;79.77;95872.94;4985789;28;20187;-79
2021/07/08 01:12:50;;;;;;;1.00;1.00;;;;;;;15.56;79.95;95873.09;4992659;28;20219;-77
2021/07/08 01:15:16;;;;;;;0.80;0.80;;;;;;;15.53;80.11;95874.22;4992812;28;20263;-77
2021/07/08 01:17:43;;;;;;;1.17;0.80;;;;;;;15.51;80.65;95885.88;4985475;28;20722;-78
2021/07/08 01:20:10;;;;;;;0.98;0.88;;;;;;;15.47;80.89;95884.59;4985019;28;20658;-78
2021/07/08 01:22:36;;;;;;;1.63;1.00;;;;;;;15.52;80.59;95890.94;4993633;28;20234;-79
2021/07/08 01:25:04;;;;;;;3.70;0.90;;;;;;;15.55;80.28;95903.69;4992859;28;21036;-78
2021/07/08 01:27:29;;;;;;;2.55;1.05;;;;;;;15.58;80.27;95907.75;4992138;28;20188;-78
2021/07/08 01:29:55;;;;;;;0.80;0.80;;;;;;;15.58;80.29;95903.34;4981181;28;20182;-79
2021/07/08 01:32:20;;;;;;;1.45;0.90;;;;;;;15.58;79.82;95900.72;4972927;28;20232;-78
2021/07/08 01:34:45;;;;;;;1.13;0.80;;;;;;;15.64;79.93;95901.06;4957069;28;20267;-78
2021/07/08 01:37:12;;;;;;;2.03;0.90;;;;;;;15.61;79.90;95901.41;4973008;28;20177;-78
2021/07/08 01:39:37;;;;;;;0.75;0.75;;;;;;;15.65;79.01;95908.75;4978767;28;20211;-77
2021/07/08 01:42:03;;;;;;;0.73;0.73;;;;;;;15.65;78.92;95902.72;4968185;28;20217;-77
2021/07/08 01:44:28;;;;;;;0.60;0.60;;;;;;;15.61;78.44;95893.53;4992673;28;20180;-76
2021/07/08 01:46:54;;;;;;;1.30;0.60;;;;;;;15.58;78.44;95886.81;4993739;28;20183;-78
2021/07/08 01:49:19;;;;;;;1.02;0.57;;;;;;;15.64;77.00;95875.72;4987830;28;20184;-77
2021/07/08 01:51:45;;;;;;;3.63;0.80;;;;;;;15.57;78.12;95872.94;4980216;28;20615;-77
2021/07/08 01:54:10;;;;;;;1.77;0.80;;;;;;;15.49;78.57;95865.09;4992647;28;20713;-77
2021/07/08 01:56:37;;;;;;;0.73;0.60;;;;;;;15.50;78.63;95871.97;4992043;28;20262;-77
2021/07/08 01:59:04;;;;;;;0.70;0.68;;;;;;;15.50;78.57;95869.34;4976039;28;20262;-79
2021/07/08 02:01:29;;;;;;;1.48;0.65;;;;;;;15.49;78.65;95872.97;4965050;28;20196;-77
2021/07/08 02:03:54;;;;;;;2.15;0.75;;;;;;;15.45;78.61;95876.88;4975269;28;20732;-78
2021/07/08 02:06:20;;;;;;;1.77;0.80;;;;;;;15.46;78.65;95880.31;4972700;28;20199;-78
2021/07/08 02:08:46;;;;;;;1.67;0.70;;;;;;;15.40;78.76;95879.22;4956621;28;20666;-77
2021/07/08 02:11:11;;;;;;;0.63;0.63;;;;;;;15.41;78.69;95870.38;4957412;28;20713;-78
2021/07/08 02:13:38;;;;;;;0.90;0.70;;;;;;;15.38;78.59;95860.25;4985119;28;20261;-78
2021/07/08 02:16:07;;;;;;;1.08;0.60;;;;;;;15.36;78.15;95867.44;4992093;28;20172;-78
2021/07/08 02:18:33;;;;;;;2.50;0.70;;;;;;;15.31;78.74;95859.28;4992207;28;20180;-77
2021/07/08 02:20:59;;;;;;;0.88;0.88;;;;;;;15.35;78.44;95865.81;4974712;28;20207;-75
2021/07/08 02:23:24;;;;;;;0.65;0.40;;;;;;;15.37;78.39;95863.84;4978306;28;20549;-77
2021/07/08 02:25:50;;;;;;;1.48;0.70;;;;;;;15.32;78.65;95868.75;4988485;28;20179;-77
2021/07/08 02:28:16;;;;;;;1.73;0.68;;;;;;;15.30;78.68;95860.28;4992041;28;20190;-78
2021/07/08 02:30:41;;;;;;;0.80;0.80;;;;;;;15.29;78.78;95869.94;4976003;28;20546;-79
2021/07/08 02:33:07;;;;;;;1.60;0.80;;;;;;;15.29;78.53;95861.25;4980441;28;20212;-78
2021/07/08 02:35:33;;;;;;;1.48;0.70;;;;;;;15.28;78.94;95855.22;4983741;28;20180;-78
2021/07/08 02:37:58;;;;;;;0.65;0.65;;;;;;;15.26;78.94;95859.78;4992018;28;20180;-77
2021/07/08 02:40:32;;;;;;;1.73;0.90;;;;;;;15.25;79.21;95859.94;4995260;28;20295;-78
2021/07/08 02:42:58;;;;;;;0.82;0.80;;;;;;;15.24;79.27;95860.94;4971888;28;20688;-78
2021/07/08 02:45:26;;;;;;;1.02;0.73;;;;;;;15.25;79.31;95867.81;4971407;28;20172;-78
2021/07/08 02:47:52;;;;;;;0.70;0.60;;;;;;;15.27;79.00;95873.69;4995571;28;20188;-79
2021/07/08 02:50:19;;;;;;;0.60;0.60;;;;;;;15.24;78.93;95871.41;4995393;28;20170;-79
2021/07/08 02:52:45;;;;;;;1.13;0.77;;;;;;;15.24;78.95;95868.78;4978950;28;20698;-78
2021/07/08 02:55:11;;;;;;;1.30;0.70;;;;;;;15.22;78.99;95862.91;4984379;28;20203;-77
2021/07/08 02:57:38;;;;;;;0.70;0.70;;;;;;;15.22;79.17;95874.19;4973711;28;20555;-79
2021/07/08 03:00:06;;;;;;;2.40;0.70;;;;;;;15.21;79.35;95874.38;4979169;28;20212;-78
2021/07/08 03:02:31;;;;;;;1.98;0.70;;;;;;;15.17;79.72;95878.28;4995014;28;20691;-77
2021/07/08 03:04:56;;;;;;;0.80;0.73;;;;;;;15.15;79.48;95883.69;4984804;28;20201;-78
2021/07/08 03:07:21;;;;;;;1.05;0.60;;;;;;;15.16;79.39;95882.69;4967024;28;20172;-78
2021/07/08 03:09:47;;;;;;;1.00;0.80;;;;;;;15.20;79.24;95888.44;4976899;28;20169;-79
2021/07/08 03:12:12;;;;;;;0.73;0.60;;;;;;;15.12;79.36;95891.06;4975761;28;20201;-77
2021/07/08 03:14:37;;;;;;;0.65;0.65;;;;;;;15.12;78.77;95883.22;4974410;28;20199;-76
2021/07/08 03:17:03;;;;;;;1.17;0.75;;;;;;;15.14;78.57;95876.03;4984517;28;20211;-76
2021/07/08 03:19:28;;;;;;;2.45;0.80;;;;;;;15.12;78.74;95870.16;4994379;28;20278;-77
2021/07/08 03:21:53;;;;;;;0.77;0.77;;;;;;;15.15;78.59;95869.81;4994342;28;20279;-76
2021/07/08 03:24:19;;;;;;;1.13;0.63;;;;;;;15.15;78.65;95865.38;4994635;28;20643;-79
2021/07/08 03:26:44;;;;;;;1.63;0.70;;;;;;;15.21;77.83;95879.59;4981931;28;20179;-77
2021/07/08 03:29:09;;;;;;;0.60;0.60;;;;;;;15.25;77.44;95888.72;4975961;28;20180;-79
2021/07/08 03:31:35;;;;;;;1.33;0.68;;;;;;;15.26;77.16;95882.50;4972292;28;20211;-77
2021/07/08 03:34:00;;;;;;;2.20;0.60;;;;;;;15.27;76.96;95869.25;4978122;28;20183;-77
2021/07/08 03:36:26;;;;;;;1.67;0.60;;;;;;;15.33;76.34;95864.34;4968456;28;20189;-78
2021/07/08 03:38:51;;;;;;;0.77;0.65;;;;;;;15.32;76.37;95855.69;4963126;28;20671;-79
2021/07/08 03:41:16;;;;;;;0.50;0.50;;;;;;;15.39;76.33;95859.25;4974579;28;20180;-77
2021/07/08 03:43:41;;;;;;;1.42;0.70;;;;;;;15.37;75.89;95847.31;4975819;28;20594;-78
2021/07/08 03:46:07;;;;;;;2.17;0.70;;;;;;;15.41;75.86;95844.19;4976006;28;20177;-78
2021/07/08 03:48:32;;;;;;;0.60;0.60;;;;;;;15.41;75.88;95844.19;4962984;28;20221;-76
2021/07/08 03:50:58;;;;;;;1.45;0.98;;;;;;;15.38;75.98;95844.56;4985954;28;20192;-78
2021/07/08 03:53:24;;;;;;;1.05;0.60;;;;;;;15.44;75.87;95840.41;4986420;28;20200;-77
2021/07/08 03:55:49;;;;;;;1.30;0.88;;;;;;;15.39;76.42;95837.50;4994009;28;20172;-77
2021/07/08 03:58:15;;;;;;;1.65;0.60;;;;;;;15.37;76.21;95847.31;4967451;28;20265;-77
2021/07/08 04:00:42;;;;;;;0.90;0.60;;;;;;;15.45;75.85;95842.84;4986836;28;20222;-79
2021/07/08 04:03:13;;;;;;;0.50;0.50;;;;;;;15.42;75.57;95835.34;4993632;28;20207;-78
2021/07/08 04:05:40;;;;;;;2.15;0.45;;;;;;;15.46;75.61;95827.97;4993811;28;20299;-78
2021/07/08 04:08:06;;;;;;;0.68;0.63;;;;;;;15.48;75.64;95828.63;4973785;28;20196;-77
2021/07/08 04:10:32;;;;;;;2.67;0.47;;;;;;;15.65;75.70;95832.03;4982031;28;20185;-78
2021/07/08 04:12:57;;;;;;;2.80;0.70;;;;;;;15.63;76.78;95829.56;4974459;28;20202;-77
2021/07/08 04:15:23;;;;;;;1.52;1.10;;;;;;;15.62;76.64;95814.84;4993473;28;20633;-77
2021/07/08 04:17:48;;;;;;;2.00;0.60;;;;;;;15.45;76.86;95814.06;4993503;28;20187;-78
2021/07/08 04:20:16;;;;;;;0.70;0.70;;;;;;;15.37;77.25;95822.00;4985543;28;20239;-77
2021/07/08 04:22:42;;;;;;;1.05;0.75;;;;;;;15.30;78.21;95827.06;4968079;28;20207;-78
2021/07/08 04:25:09;;;;;;;0.98;0.70;;;;;;;15.37;78.04;95832.44;4985372;28;20206;-77
2021/07/08 04:27:35;;;;;;;1.25;0.73;;;;;;;15.30;78.30;95836.72;4993482;28;20180;-77
2021/07/08 04:30:01;;;;;;;0.63;0.60;;;;;;;15.34;78.27;95839.81;4985900;28;20190;-77
2021/07/08 04:32:26;;;;;;;1.27;0.75;;;;;;;15.37;78.67;95829.84;4968607;28;20212;-78
2021/07/08 04:34:52;;;;;;;1.05;0.80;;;;;;;15.24;78.97;95832.16;4993210;28;20172;-77
2021/07/08 04:37:17;;;;;;;2.95;1.08;;;;;;;15.18;79.51;95840.69;4993090;28;20651;-78
2021/07/08 04:39:43;;;;;;;1.08;0.98;;;;;;;15.13;80.23;95838.59;4992042;28;20666;-76
2021/07/08 04:42:10;;;;;;;1.17;0.80;;;;;;;15.12;80.27;95833.53;4976355;28;20220;-78
2021/07/08 04:44:35;;;;;;;2.35;0.90;;;;;;;15.27;80.04;95814.31;4993460;28;20176;-77
2021/07/08 04:47:01;;;;;;;1.55;1.00;;;;;;;15.36;79.92;95804.63;4972210;28;20857;-78
2021/07/08 04:49:27;;;;;;;1.27;0.95;;;;;;;15.23;80.62;95817.47;4939077;28;20231;-77
2021/07/08 04:51:52;;;;;;;1.23;0.70;;;;;;;15.13;81.18;95838.59;4974072;28;20207;-77
2021/07/08 04:54:17;;;;;;;2.47;0.98;;;;;;;15.13;81.65;95850.84;4981014;28;20199;-78
2021/07/08 04:56:42;;;;;;;2.28;0.90;;;;;;;14.95;82.39;95864.94;4953206;28;20205;-78
2021/07/08 04:59:08;;;;;;;1.23;0.80;;;;;;;15.04;82.55;95870.16;4955715;28;20694;-79
2021/07/08 05:01:33;;;;;;;2.70;1.00;;;;;;;15.16;82.16;95879.28;4971728;28;20196;-78
2021/07/08 05:04:00;;;;;;;1.10;1.00;;;;;;;15.23;82.22;95888.09;4981547;28;20200;-78
2021/07/08 05:06:26;;;;;;;1.02;0.93;;;;;;;15.25;81.57;95881.69;4992179;28;20610;-78
2021/07/08 05:08:51;;;;;;;1.08;0.90;;;;;;;15.28;81.44;95875.31;4992143;28;20192;-78
2021/07/08 05:11:17;;;;;;;1.17;0.88;;;;;;;15.35;81.18;95881.50;4975986;28;20375;-78
2021/07/08 05:13:42;;;;;;;3.13;1.10;;;;;;;15.42;80.46;95885.06;4983026;28;20709;-79
2021/07/08 05:16:07;;;;;;;1.08;0.95;;;;;;;15.44;80.35;95879.66;4958281;28;20193;-79
2021/07/08 05:18:33;;;;;;;2.85;1.00;;;;;;;15.49;79.87;95866.91;4974314;28;20243;-77
2021/07/08 05:20:59;;;;;;;1.27;0.70;;;;;;;15.52;79.70;95859.53;4956873;28;20209;-79
2021/07/08 05:23:26;;;;;;;3.72;1.00;;;;;;;15.62;79.04;95866.38;4957496;28;20199;-77
2021/07/08 05:25:52;;;;;;;1.48;0.70;;;;;;;15.60;79.47;95874.38;4968306;28;20198;-78
2021/07/08 05:28:17;;;;;;;0.90;0.80;;;;;;;15.62;79.53;95890.75;4962602;28;20848;-78
2021/07/08 05:30:42;;;;;;;1.25;1.00;;;;;;;15.63;79.99;95908.09;4973038;28;20258;-80
2021/07/08 05:33:08;;;;;;;2.47;0.98;;;;;;;15.62;79.69;95914.31;4971897;28;20192;-78
2021/07/08 05:35:33;;;;;;;1.30;0.88;;;;;;;15.70;79.77;95911.66;4980186;28;20184;-78
2021/07/08 05:37:58;;;;;;;0.80;0.75;;;;;;;15.75;79.33;95903.31;4990743;28;20266;-79
2021/07/08 05:40:24;;;;;;;0.60;0.60;;;;;;;15.80;79.47;95908.84;4975613;28;20645;-79
2021/07/08 05:42:50;;;;;;;2.85;0.70;;;;;;;15.88;79.63;95906.19;4975556;28;20703;-78
2021/07/08 05:45:16;;;;;;;1.90;1.10;;;;;;;15.91;78.99;95913.72;4984495;28;20235;-78
2021/07/08 05:47:41;;;;;;;0.75;0.70;;;;;;;15.95;78.75;95912.38;4977211;28;20180;-78
2021/07/08 05:50:08;;;;;;;2.00;0.73;;;;;;;16.05;78.50;95915.59;4956325;28;20184;-78
2021/07/08 05:52:33;;;;;;;1.13;0.80;;;;;;;16.17;78.51;95917.81;4973323;28;20204;-79
2021/07/08 05:54:59;;;;;;;1.10;0.65;;;;;;;16.27;78.34;95923.66;4956266;28;20276;-79
2021/07/08 05:57:24;;;;;;;0.95;0.88;;;;;;;16.31;78.54;95923.13;4967996;28;20212;-79
2021/07/08 05:59:50;;;;;;;2.08;0.95;;;;;;;16.33;78.72;95931.63;4992704;28;20582;-79
2021/07/08 06:02:15;;;;;;;0.88;0.80;;;;;;;16.25;78.67;95943.97;4973365;28;20189;-78
2021/07/08 06:04:41;;;;;;;0.88;0.80;;;;;;;16.18;77.84;95946.47;4963400;28;20196;-79
2021/07/08 06:07:06;;;;;;;1.02;0.80;;;;;;;16.10;78.41;95942.09;4978949;28;20207;-79
2021/07/08 06:09:31;;;;;;;1.15;0.80;;;;;;;16.17;78.43;95933.53;4986468;28;20172;-78
2021/07/08 06:11:58;;;;;;;2.35;0.85;;;;;;;16.12;78.94;95947.16;4993176;28;20610;-79
2021/07/08 06:14:23;;;;;;;3.85;0.90;;;;;;;16.14;78.71;95961.72;4994264;28;20635;-79
2021/07/08 06:16:48;;;;;;;5.40;1.02;;;;;;;16.20;78.52;95959.41;4964688;28;20228;-79
2021/07/08 06:19:14;;;;;;;3.28;0.77;;;;;;;16.19;78.13;95953.34;4984055;28;20204;-78
2021/07/08 06:21:39;;;;;;;1.80;0.98;;;;;;;16.10;78.26;95955.19;4977442;28;20227;-78
2021/07/08 06:24:07;;;;;;;1.95;0.80;;;;;;;16.07;78.89;95941.59;4975872;28;20652;-78
2021/07/08 06:26:32;;;;;;;1.40;0.80;;;;;;;16.10;78.76;95930.78;4958560;28;20185;-77
2021/07/08 06:28:58;;;;;;;2.28;0.90;;;;;;;16.11;79.19;95945.53;4985023;28;20196;-78
2021/07/08 06:31:23;;;;;;;2.63;0.80;;;;;;;16.20;79.04;95943.69;4996384;28;20199;-79
2021/07/08 06:33:48;;;;;;;1.52;1.00;;;;;;;16.27;78.93;95945.44;4995125;28;20556;-77
2021/07/08 06:36:14;;;;;;;1.25;1.10;;;;;;;16.30;79.08;95946.88;4995471;28;20187;-78
2021/07/08 06:38:39;;;;;;;0.70;0.70;;;;;;;16.35;79.32;95944.56;4955934;28;20185;-78
2021/07/08 06:41:04;;;;;;;1.23;0.80;;;;;;;16.53;78.87;95946.91;4968103;28;20208;-77
2021/07/08 06:43:30;;;;;;;1.40;1.10;;;;;;;16.58;78.83;95953.25;4973484;28;20216;-79
2021/07/08 06:45:55;;;;;;;0.88;0.88;;;;;;;16.56;78.92;95951.81;4976976;28;20212;-79
2021/07/08 06:48:21;;;;;;;3.45;0.90;;;;;;;16.54;79.93;95945.94;4957853;28;20275;-77
2021/07/08 06:50:46;;;;;;;1.67;1.10;;;;;;;16.59;80.02;95951.44;4960765;28;20189;-78
2021/07/08 06:53:11;;;;;;;3.67;0.90;;;;;;;16.66;79.81;95950.56;4956583;29;20201;-78
2021/07/08 06:55:37;;;;;;;0.88;0.85;;;;;;;16.76;79.72;95963.47;4956748;29;20253;-76
2021/07/08 06:58:03;;;;;;;1.75;1.00;;;;;;;16.78;78.80;95960.66;4939989;29;20181;-76
2021/07/08 07:00:35;;;;;;;1.08;0.82;;;;;;;16.87;78.19;95964.84;4979581;28;20568;-75
2021/07/08 07:03:00;;;;;;;1.88;1.17;;;;;;;16.96;77.90;95962.03;4993513;28;20265;-78
2021/07/08 07:05:27;;;;;;;2.25;1.08;;;;;;;17.16;77.39;95962.34;4980944;28;20180;-78
2021/07/08 07:07:53;;;;;;;2.28;1.10;;;;;;;17.34;76.23;95948.88;5012568;28;20183;-79
2021/07/08 07:10:20;;;;;;;3.10;1.23;;;;;;;17.49;75.68;95933.09;4971793;28;20172;-78
2021/07/08 07:12:47;;;;;;;1.63;1.20;;;;;;;17.90;73.73;95932.69;4987595;28;20215;-78
2021/07/08 07:15:14;;;;;;;1.75;0.90;;;;;;;18.30;72.69;95929.50;4996348;28;20230;-78
2021/07/08 07:17:40;;;;;;;1.08;0.98;;;;;;;18.28;72.61;95926.22;4979884;28;20191;-77
2021/07/08 07:20:08;;;;;;;2.10;1.13;;;;;;;18.50;71.26;95934.97;4990322;28;20213;-78
2021/07/08 07:22:33;;;;;;;2.78;1.10;;;;;;;18.95;70.17;95939.06;4985482;28;20212;-78
2021/07/08 07:25:00;;;;;;;2.83;1.20;;;;;;;19.08;69.19;95932.25;4976844;28;20173;-78
2021/07/08 07:27:26;;;;;;;1.30;1.20;;;;;;;19.79;67.51;95930.34;4976615;28;20177;-80
2021/07/08 07:29:51;;;;;;;1.65;1.35;;;;;;;19.98;64.47;95934.88;4973566;28;20244;-79
2021/07/08 07:32:16;;;;;;;1.20;1.10;;;;;;;19.88;64.39;95931.78;4966967;28;20212;-80
2021/07/08 07:34:41;;;;;;;2.70;1.10;;;;;;;19.82;65.89;95945.75;4977144;28;20192;-79
2021/07/08 07:37:07;;;;;;;1.58;1.10;;;;;;;20.08;64.66;95943.22;4978839;28;20188;-79
2021/07/08 07:39:32;;;;;;;1.73;1.25;;;;;;;20.72;62.14;95942.00;4996048;28;20199;-78
2021/07/08 07:41:58;;;;;;;2.22;0.90;;;;;;;20.47;62.66;95941.75;4987728;28;20623;-78
2021/07/08 07:44:23;;;;;;;1.50;1.10;;;;;;;20.26;63.76;95940.03;4971687;28;20683;-79
2021/07/08 07:46:48;;;;;;;3.88;1.27;;;;;;;20.36;63.12;95939.66;4995796;28;20179;-77
2021/07/08 07:49:14;;;;;;;3.75;1.52;;;;;;;20.15;63.73;95937.16;4994434;28;20175;-79
2021/07/08 07:51:39;;;;;;;1.20;1.10;;;;;;;20.11;63.95;95946.47;4994672;28;20220;-78
2021/07/08 07:54:05;;;;;;;1.10;1.00;;;;;;;19.75;64.77;95944.88;4966846;28;20235;-77
2021/07/08 07:56:30;;;;;;;1.20;1.10;;;;;;;19.56;65.67;95951.69;4976106;28;20180;-78
2021/07/08 07:58:56;;;;;;;2.80;1.10;;;;;;;19.67;65.82;95947.69;4975274;28;20181;-77
2021/07/08 08:01:21;;;;;;;1.55;0.90;;;;;;;19.34;65.68;95945.59;4974558;28;20239;-78
2021/07/08 08:03:49;;;;;;;1.10;1.00;;;;;;;19.30;66.91;95948.84;4980195;28;20192;-75
2021/07/08 08:08:58;;;;;;;2.85;1.00;;;;;;;20.51;61.97;95944.81;4984205;28;20764;-75
2021/07/08 08:11:24;;;;;;;0.80;0.70;;;;;;;20.68;61.36;95945.25;4957917;28;20189;-76
2021/07/08 08:13:50;;;;;;;1.95;0.70;;;;;;;20.85;60.04;95935.94;4961502;28;20211;-77
2021/07/08 08:16:15;;;;;;;0.77;0.70;;;;;;;20.99;57.23;95936.75;4954751;28;20180;-78
2021/07/08 08:18:40;;;;;;;1.52;0.75;;;;;;;20.79;59.00;95936.72;4948024;28;20177;-76
2021/07/08 08:21:06;;;;;;;0.80;0.70;;;;;;;20.73;60.02;95940.16;4961630;28;20209;-77
2021/07/08 08:23:31;;;;;;;0.73;0.73;;;;;;;20.83;58.92;95953.78;4973968;28;20204;-81
2021/07/08 08:25:57;;;;;;;2.60;0.80;;;;;;;20.94;58.85;95955.84;4950287;28;20197;-80
2021/07/08 08:28:23;;;;;;;1.65;0.75;;;;;;;20.44;59.66;95960.63;4977487;28;20183;-77
2021/07/08 08:30:49;;;;;;;0.80;0.80;;;;;;;20.00;60.75;95963.66;4993513;28;20179;-78
2021/07/08 08:33:14;;;;;;;0.70;0.70;;;;;;;20.05;61.59;95961.25;4992870;28;20607;-79
2021/07/08 08:35:40;;;;;;;2.10;0.90;;;;;;;20.02;62.11;95973.00;4988297;28;20188;-78
2021/07/08 08:38:05;;;;;;;0.80;0.80;;;;;;;19.70;63.14;95971.84;4985289;28;20171;-78
2021/07/08 08:40:31;;;;;;;1.70;0.80;;;;;;;19.71;63.39;95970.81;4994442;28;20683;-78
2021/07/08 08:42:56;;;;;;;2.42;0.80;;;;;;;19.35;63.49;95968.34;4993298;28;20215;-79
2021/07/08 08:45:22;;;;;;;1.13;0.82;;;;;;;19.50;63.17;95963.75;4988602;28;20205;-79
2021/07/08 08:48:02;;;;;;;0.95;0.80;;;;;;;19.38;63.55;95964.50;4962443;28;20183;-78
2021/07/08 08:50:29;;;;;;;1.58;0.60;;;;;;;19.42;63.17;95969.16;4954314;29;20187;-78
2021/07/08 08:52:55;;;;;;;4.47;1.30;;;;;;;19.38;63.51;95962.66;4955673;29;20197;-78
2021/07/08 08:55:21;;;;;;;0.70;0.70;;;;;;;19.17;63.05;95974.06;4953926;28;20185;-79
2021/07/08 08:57:46;;;;;;;0.90;0.60;;;;;;;19.30;64.13;95972.53;4972794;28;20200;-79
2021/07/08 09:00:24;;;;;;;2.15;0.70;;;;;;;19.02;64.49;95977.78;4973396;28;20239;-78
2021/07/08 09:02:59;;;;;;;0.80;0.80;;;;;;;18.98;65.18;95984.41;4973213;28;20200;-78
2021/07/08 09:05:24;;;;;;;0.80;0.70;;;;;;;18.82;65.22;95980.25;4957168;28;20202;-78
2021/07/08 09:07:49;;;;;;;1.55;0.70;;;;;;;18.77;66.09;95982.59;4972504;28;20723;-78
2021/07/08 09:10:15;;;;;;;3.75;0.90;;;;;;;18.80;66.19;95987.47;4982416;28;20194;-78
2021/07/08 09:12:41;;;;;;;1.63;0.80;;;;;;;18.78;66.75;95990.31;4973228;28;20295;-78
2021/07/08 09:15:20;;;;;;;0.85;0.80;;;;;;;18.78;65.63;95997.38;4973058;28;20180;-78
2021/07/08 09:17:47;;;;;;;1.05;0.80;;;;;;;18.72;66.22;95998.94;4969024;28;20224;-78
2021/07/08 09:20:14;;;;;;;0.95;0.85;;;;;;;18.54;67.36;96001.16;4972840;28;20189;-79
2021/07/08 09:22:40;;;;;;;0.70;0.70;;;;;;;18.52;67.74;95995.25;4974055;28;20291;-79
2021/07/08 09:25:32;;;;;;;0.90;0.85;;;;;;;18.45;68.04;96004.88;4956915;28;20657;-79
2021/07/08 09:28:16;;;;;;;1.00;0.90;;;;;;;18.60;68.63;96003.03;4969246;28;20208;-78
2021/07/08 09:30:43;;;;;;;0.90;0.80;;;;;;;18.70;68.12;96006.22;4960093;28;20176;-78
2021/07/08 09:33:27;;;;;;;2.47;0.93;;;;;;;18.73;69.44;96008.50;4988804;28;20211;-78
2021/07/08 09:36:03;;;;;;;1.20;1.10;;;;;;;18.42;72.39;96003.44;4974716;28;20181;-78
2021/07/08 09:38:30;;;;;;;3.25;1.38;;;;;;;18.61;71.62;96004.66;4970966;28;20262;-78
2021/07/08 09:41:15;;;;;;;2.97;1.08;;;;;;;18.53;71.36;96000.34;4972730;28;20204;-76
2021/07/08 09:43:41;;;;;;;2.00;0.80;;;;;;;18.57;71.61;96008.69;4956996;28;20212;-76
2021/07/08 09:46:08;;;;;;;1.10;1.00;;;;;;;18.58;71.93;96002.41;4973053;28;20187;-77
2021/07/08 09:48:33;;;;;;;1.52;1.00;;;;;;;18.46;72.02;96001.25;4973019;28;20263;-78
2021/07/08 09:50:59;;;;;;;1.42;0.90;;;;;;;18.37;71.85;96005.81;4972638;28;20211;-77
2021/07/08 09:53:25;;;;;;;2.17;1.10;;;;;;;18.35;72.71;96006.00;4972630;28;20303;-78
2021/07/08 09:58:34;;;;;;;2.40;0.80;;;;;;;18.36;73.39;96018.13;4974694;28;20606;-78
2021/07/08 10:01:18;;;;;;;1.50;0.93;;;;;;;18.42;73.29;96016.59;4971480;28;20213;-78
2021/07/08 10:03:44;;;;;;;2.97;1.02;;;;;;;18.24;74.77;96009.09;4972380;28;20375;-77
2021/07/08 10:06:10;;;;;;;1.83;1.05;;;;;;;18.11;74.77;96014.22;4971347;28;20196;-77
2021/07/08 10:08:36;;;;;;;4.20;1.13;;;;;;;18.14;76.03;96010.41;4986945;28;20188;-76
2021/07/08 10:11:02;;;;;;;2.42;0.85;;;;;;;18.34;75.26;96009.63;4970934;28;20203;-76
2021/07/08 10:13:28;;;;;;;0.63;0.63;;;;;;;18.36;75.42;95997.09;4980080;28;20204;-76
2021/07/08 10:15:54;;;;;;;1.50;1.02;;;;;;;18.51;74.79;95998.91;4993396;28;20679;-77
2021/07/08 10:18:20;;;;;;;2.53;1.00;;;;;;;18.49;75.52;96006.97;4972318;28;20703;-74
2021/07/08 10:20:48;;;;;;;1.77;0.90;;;;;;;18.29;76.25;95996.25;4955171;28;20204;-74
2021/07/08 10:23:15;;;;;;;0.93;0.80;;;;;;;18.44;75.41;96006.72;4987848;28;20695;-76
2021/07/08 10:25:41;;;;;;;2.00;0.98;;;;;;;18.39;75.96;95988.88;4971732;28;20189;-76
2021/07/08 10:28:07;;;;;;;1.33;1.02;;;;;;;18.59;75.27;95980.38;4971060;28;20181;-76
2021/07/08 10:30:33;;;;;;;2.22;0.90;;;;;;;18.83;75.34;95976.59;4970977;28;20176;-76
2021/07/08 10:32:58;;;;;;;1.05;0.80;;;;;;;18.63;75.00;95971.09;4953174;28;20235;-76
2021/07/08 10:35:43;;;;;;;2.00;1.15;;;;;;;18.68;75.50;95993.25;4970981;28;20343;-74
2021/07/08 10:38:34;;;;;;;1.77;1.20;;;;;;;18.75;75.31;95990.69;4971013;28;20260;-75
2021/07/08 10:41:29;;;;;;;2.25;1.38;;;;;;;18.22;76.38;95995.34;4972111;28;20212;-75
2021/07/08 10:43:54;;;;;;;2.50;1.50;;;;;;;17.99;77.68;95997.25;4970952;28;20692;-75
2021/07/08 10:46:34;;;;;;;1.77;1.58;;;;;;;17.79;79.12;95994.38;4972930;28;20197;-75
2021/07/08 10:49:10;;;;;;;1.70;1.60;;;;;;;17.85;79.38;96008.63;4987327;28;20227;-76
2021/07/08 10:51:36;;;;;;;2.33;1.90;;;;;;;17.76;79.37;96010.50;4971014;28;20172;-75
2021/07/08 10:54:26;;;;;;;1.88;1.50;;;;;;;17.65;79.66;96008.28;4953178;28;20196;-79
2021/07/08 10:56:51;;;;;;;5.85;1.70;;;;;;;17.59;80.42;96017.72;4965946;28;20185;-78
2021/07/08 10:59:17;;;;;;;1.38;1.27;;;;;;;17.48;79.60;96018.94;4974585;28;20528;-77
2021/07/08 11:01:48;;;;;;;1.83;1.55;;;;;;;17.62;79.07;96017.34;4976677;28;20251;-77
2021/07/08 11:04:14;;;;;;;0.95;0.95;;;;;;;17.67;78.38;96022.88;4975476;28;20690;-76
2021/07/08 11:06:45;;;;;;;1.80;1.00;;;;;;;17.72;78.09;96025.00;4977151;28;20239;-77
2021/07/08 11:09:17;;;;;;;0.90;0.90;;;;;;;17.91;77.59;96013.94;4976777;28;20187;-77
2021/07/08 11:11:45;;;;;;;0.77;0.77;;;;;;;18.19;77.13;96021.16;4978302;28;20228;-77
2021/07/08 11:14:20;;;;;;;1.90;1.08;;;;;;;18.60;75.76;96019.63;4977769;28;20181;-77
2021/07/08 11:16:58;;;;;;;1.08;1.00;;;;;;;18.79;74.61;96020.88;4975429;28;20675;-77
2021/07/08 11:19:24;;;;;;;1.02;1.02;;;;;;;19.06;74.23;96018.50;4970719;28;20236;-78
2021/07/08 11:21:49;;;;;;;0.93;0.85;;;;;;;19.24;72.74;96019.66;4975387;28;20207;-77
2021/07/08 11:24:47;;;;;;;1.10;1.00;;;;;;;19.22;72.22;96011.16;4975898;28;20559;-78
2021/07/08 11:27:16;;;;;;;0.90;0.90;;;;;;;19.16;71.50;96008.47;4973158;28;20185;-79
2021/07/08 11:29:51;;;;;;;4.47;1.13;;;;;;;19.26;71.13;96003.72;4975120;28;20191;-77
2021/07/08 11:32:31;;;;;;;0.80;0.80;;;;;;;19.35;70.46;95992.03;4974443;28;20697;-79
2021/07/08 11:35:19;;;;;;;3.35;0.80;;;;;;;19.11;71.95;95987.97;4957985;28;20243;-79
2021/07/08 11:37:55;;;;;;;2.58;1.20;;;;;;;19.11;71.09;95993.25;4970957;28;20180;-77
2021/07/08 11:40:21;;;;;;;1.02;0.90;;;;;;;18.91;70.78;95997.53;4974327;28;20211;-77